Time;durP1;ratioP1;P1;durP2;ratioP2;P2;SDS_P1;SDS_P2;PMS_P1;PMS_P2;Temp;Humidity;BMP_temperature;BMP_pressure;BME280_temperature;BME280_humidity;BME280_pressure;Samples;Min_cycle;Max_cycle;Signal;HPM_P1;HPM_P2
2021/10/04 00:14:53;;;;;;;15.05;10.98;;;;;;;12.90;100.00;100397.09;713969;1205;114287;-71
2021/10/04 00:29:56;;;;;;;17.43;11.50;;;;;;;12.99;100.00;100396.21;714392;1177;115433;-71
2021/10/04 00:44:58;;;;;;;20.43;12.05;;;;;;;12.84;100.00;100402.13;714397;1205;115252;-70
2021/10/04 01:00:01;;;;;;;23.50;12.00;;;;;;;12.63;100.00;100390.88;714175;1200;114184;-72
2021/10/04 01:15:04;;;;;;;20.73;11.88;;;;;;;12.38;100.00;100366.06;714266;1203;114915;-71
2021/10/04 01:30:07;;;;;;;18.25;11.50;;;;;;;12.35;100.00;100382.13;715261;1206;114572;-71
2021/10/04 01:45:17;;;;;;;18.97;11.43;;;;;;;12.27;100.00;100400.43;714051;1189;113720;-71
2021/10/04 02:00:21;;;;;;;15.73;10.95;;;;;;;12.14;100.00;100380.55;713904;1203;114775;-71
2021/10/04 02:15:24;;;;;;;17.48;12.08;;;;;;;12.02;100.00;100376.41;714259;1205;114519;-71
2021/10/04 02:30:27;;;;;;;19.18;11.95;;;;;;;11.98;100.00;100388.19;715680;1204;113776;-71
2021/10/04 02:45:29;;;;;;;16.78;10.98;;;;;;;11.97;100.00;100400.52;714211;1204;114313;-72
2021/10/04 03:00:35;;;;;;;20.13;10.93;;;;;;;11.92;100.00;100410.59;715065;1200;114558;-72
2021/10/04 03:15:37;;;;;;;20.43;12.73;;;;;;;11.74;100.00;100405.20;714281;1201;114480;-77
2021/10/04 03:30:39;;;;;;;22.30;11.83;;;;;;;11.59;100.00;100386.42;719389;1179;114273;-72
2021/10/04 03:45:42;;;;;;;19.13;11.60;;;;;;;11.47;100.00;100393.61;715424;1205;114448;-75
2021/10/04 04:00:44;;;;;;;19.67;11.20;;;;;;;11.43;100.00;100391.42;714167;1177;113897;-73
2021/10/04 04:15:46;;;;;;;53.63;30.20;;;;;;;11.33;100.00;100394.02;714123;1204;115626;-72
2021/10/04 04:30:50;;;;;;;24.50;13.40;;;;;;;11.28;100.00;100415.45;714020;1205;115004;-72
2021/10/04 04:45:52;;;;;;;25.20;13.80;;;;;;;11.29;100.00;100416.28;714184;1205;114359;-72
2021/10/04 05:01:48;;;;;;;20.57;13.17;;;;;;;11.28;100.00;100432.99;716256;1166;114387;31
2021/10/04 05:16:50;;;;;;;20.40;12.30;;;;;;;11.31;100.00;100438.00;709759;1203;115006;-73
2021/10/04 05:31:53;;;;;;;20.25;11.28;;;;;;;11.53;100.00;100443.95;710134;1208;114850;-73
2021/10/04 05:46:56;;;;;;;24.85;13.40;;;;;;;11.74;100.00;100460.40;710784;1202;116007;-71
2021/10/04 06:01:59;;;;;;;21.45;13.50;;;;;;;12.08;100.00;100460.00;712236;1203;115302;-71
2021/10/04 06:17:02;;;;;;;22.23;14.97;;;;;;;12.45;100.00;100471.55;712537;1178;115425;-73
2021/10/04 06:32:06;;;;;;;23.00;13.60;;;;;;;13.27;100.00;100471.73;712596;1203;115661;-77
2021/10/04 06:47:08;;;;;;;20.87;12.23;;;;;;;13.88;100.00;100486.02;713173;1202;115504;-82
2021/10/04 07:02:10;;;;;;;76.30;36.05;;;;;;;14.52;100.00;100511.41;712284;1197;115109;-82
2021/10/04 07:17:13;;;;;;;129.93;57.30;;;;;;;15.28;100.00;100530.92;712327;1203;115365;-79
2021/10/04 07:32:16;;;;;;;24.95;14.48;;;;;;;15.84;100.00;100528.63;712881;1202;116249;-79
2021/10/04 07:47:18;;;;;;;21.10;13.60;;;;;;;16.58;100.00;100525.92;712929;1183;115217;-81
2021/10/04 08:02:21;;;;;;;23.40;12.23;;;;;;;17.26;100.00;100541.47;713057;1203;115559;-80
2021/10/04 08:17:25;;;;;;;20.33;12.93;;;;;;;18.11;100.00;100529.20;712637;1203;114440;-81
2021/10/04 08:32:27;;;;;;;54.65;28.90;;;;;;;19.21;97.41;100550.83;712988;1206;115510;-81
2021/10/04 08:47:30;;;;;;;14.57;10.87;;;;;;;19.55;93.20;100536.09;712838;1203;114975;-81
2021/10/04 09:02:33;;;;;;;15.15;10.70;;;;;;;19.76;89.85;100525.45;714786;1202;115602;-82
2021/10/04 09:17:38;;;;;;;23.40;11.28;;;;;;;20.74;86.67;100508.82;714802;1202;114437;-81
2021/10/04 09:32:50;;;;;;;15.10;11.18;;;;;;;21.43;83.31;100525.73;715066;1203;115436;-81
2021/10/04 09:47:54;;;;;;;19.95;11.15;;;;;;;21.07;80.59;100528.67;713336;1205;114542;-81
2021/10/04 10:02:57;;;;;;;22.18;10.58;;;;;;;22.49;80.94;100526.06;714314;1206;115070;-80
2021/10/04 10:18:23;;;;;;;17.40;11.05;;;;;;;23.14;77.81;100527.14;713716;1205;115529;-81
2021/10/04 10:33:47;;;;;;;14.30;9.73;;;;;;;23.62;75.16;100537.36;712994;1205;115715;-72
2021/10/04 10:48:50;;;;;;;15.10;9.63;;;;;;;23.43;73.89;100539.13;712601;1205;115791;-72
2021/10/04 11:03:54;;;;;;;15.27;10.63;;;;;;;23.55;73.47;100518.66;712522;1203;115386;-71
2021/10/04 11:18:57;;;;;;;16.37;10.23;;;;;;;24.19;70.01;100515.13;712560;1206;114687;-71
2021/10/04 11:34:09;;;;;;;14.90;9.67;;;;;;;24.00;72.08;100527.67;712571;1203;114929;-71
2021/10/04 11:49:20;;;;;;;15.80;9.40;;;;;;;24.95;70.70;100537.27;712567;1202;114210;-72
2021/10/04 12:04:23;;;;;;;15.43;8.70;;;;;;;24.06;69.64;100518.77;712526;1203;114288;-72
2021/10/04 12:19:26;;;;;;;11.05;8.13;;;;;;;24.15;71.19;100535.37;712585;1205;114773;-72
2021/10/04 12:34:29;;;;;;;11.18;8.78;;;;;;;24.31;69.59;100536.67;712576;1202;115341;-72
2021/10/04 12:49:32;;;;;;;11.87;8.00;;;;;;;24.63;70.72;100536.63;712755;1203;114148;-73
2021/10/04 13:04:38;;;;;;;14.37;8.33;;;;;;;24.56;69.61;100550.04;712755;1209;114317;-72
2021/10/04 13:19:40;;;;;;;13.08;9.38;;;;;;;26.44;68.74;100545.68;712609;1202;114141;-72
2021/10/04 13:34:43;;;;;;;11.10;7.90;;;;;;;31.51;61.50;100563.29;712531;1205;114540;-73
2021/10/04 13:49:45;;;;;;;10.43;8.15;;;;;;;30.25;59.37;100564.09;712646;1202;116161;-74
2021/10/04 14:04:48;;;;;;;12.83;8.07;;;;;;;29.35;59.53;100573.55;712671;1202;114292;-74
2021/10/04 14:19:50;;;;;;;14.30;8.43;;;;;;;28.92;60.68;100585.98;712630;1203;114595;-82
2021/10/04 14:34:53;;;;;;;11.70;8.53;;;;;;;30.73;59.42;100582.27;713375;1203;115212;-83
2021/10/04 14:49:57;;;;;;;45.45;28.38;;;;;;;30.51;57.83;100594.03;713559;1202;114881;-83
2021/10/04 15:05:01;;;;;;;17.13;10.55;;;;;;;26.57;61.02;100603.80;714016;1206;115148;-84
2021/10/04 15:20:05;;;;;;;32.97;22.20;;;;;;;23.74;66.89;100597.25;712718;1202;115903;-82
2021/10/04 15:35:08;;;;;;;46.50;25.18;;;;;;;23.71;69.37;100603.02;713599;1209;115177;-83
2021/10/04 15:50:13;;;;;;;171.75;85.95;;;;;;;22.76;71.02;100615.07;712943;1203;115981;-82
2021/10/04 16:05:18;;;;;;;48.30;28.83;;;;;;;21.63;74.18;100644.27;712836;1202;114519;-83
2021/10/04 16:20:20;;;;;;;27.23;18.80;;;;;;;20.41;78.09;100658.60;712730;1202;114278;-83
2021/10/04 16:35:22;;;;;;;41.95;26.75;;;;;;;19.97;80.78;100672.92;713789;1203;115831;-80
2021/10/04 16:50:26;;;;;;;32.87;19.57;;;;;;;19.64;83.22;100683.97;715030;1180;114539;-91
2021/10/04 17:05:28;;;;;;;33.67;20.97;;;;;;;19.17;85.41;100690.48;714134;1203;114803;-88
2021/10/04 17:20:32;;;;;;;152.43;72.70;;;;;;;18.85;87.33;100689.77;712820;1182;114661;-78
2021/10/04 17:35:35;;;;;;;55.40;30.93;;;;;;;18.50;90.23;100689.37;712927;1180;115006;-77
2021/10/04 17:50:38;;;;;;;30.03;19.20;;;;;;;18.04;91.68;100693.66;713061;1177;114220;-78
2021/10/04 18:05:43;;;;;;;26.80;15.45;;;;;;;17.78;93.82;100699.22;713251;1203;116574;-78
2021/10/04 18:20:45;;;;;;;24.50;16.50;;;;;;;17.50;95.98;100706.77;713467;1180;114239;-79
2021/10/04 18:35:48;;;;;;;31.00;17.95;;;;;;;17.28;97.00;100706.50;713790;1180;115346;-77
2021/10/04 18:50:50;;;;;;;54.10;30.53;;;;;;;17.06;97.61;100724.74;713445;1203;114530;-76
2021/10/04 19:05:53;;;;;;;109.83;50.30;;;;;;;16.65;99.43;100724.72;713880;1177;115164;-78
2021/10/04 19:20:55;;;;;;;35.63;24.13;;;;;;;16.38;100.00;100708.14;715270;1181;114548;-77
2021/10/04 19:36:01;;;;;;;22.27;14.50;;;;;;;16.09;100.00;100725.28;713284;1180;114641;-80
2021/10/04 19:51:06;;;;;;;19.98;12.98;;;;;;;15.93;100.00;100718.11;713458;1178;115169;-79
2021/10/04 20:06:08;;;;;;;19.63;12.83;;;;;;;15.62;100.00;100707.20;713470;1206;115331;-79
2021/10/04 20:21:11;;;;;;;21.10;12.80;;;;;;;15.51;100.00;100715.42;712895;1203;114604;-78
2021/10/04 20:36:14;;;;;;;20.58;13.80;;;;;;;15.36;100.00;100708.07;713225;1181;114559;-78
2021/10/04 20:51:16;;;;;;;24.13;14.65;;;;;;;15.23;100.00;100713.77;712773;1191;115241;-77
2021/10/04 21:06:19;;;;;;;20.40;13.30;;;;;;;14.98;100.00;100691.63;712452;1178;115268;-78
2021/10/04 21:21:21;;;;;;;22.87;14.87;;;;;;;14.87;100.00;100687.41;712533;1180;116066;-78
2021/10/04 21:36:23;;;;;;;37.07;25.63;;;;;;;14.75;100.00;100707.94;712338;1180;114441;-78
2021/10/04 21:51:27;;;;;;;34.60;23.90;;;;;;;14.67;100.00;100707.06;712279;1202;114655;-78
2021/10/04 22:21:31;;;;;;;30.40;20.10;;;;;;;14.55;100.00;100682.67;712153;1203;114808;-76
2021/10/04 22:36:34;;;;;;;25.90;16.75;;;;;;;14.53;100.00;100684.63;712272;1203;114597;-77
2021/10/04 22:51:36;;;;;;;29.70;17.85;;;;;;;14.56;100.00;100694.89;712262;1181;114440;-77
2021/10/04 23:06:38;;;;;;;27.08;17.38;;;;;;;14.62;100.00;100699.55;712366;1181;115401;-77
2021/10/04 23:21:40;;;;;;;24.77;15.60;;;;;;;14.47;100.00;100694.80;712124;1180;114873;-77
2021/10/04 23:36:43;;;;;;;27.90;16.78;;;;;;;14.36;100.00;100724.06;712291;1180;114666;-77
2021/10/04 23:51:45;;;;;;;38.90;22.77;;;;;;;14.29;100.00;100707.16;712104;1181;116317;-79
